Time;durP1;ratioP1;P1;durP2;ratioP2;P2;SDS_P1;SDS_P2;PMS_P1;PMS_P2;Temp;Humidity;BMP_temperature;BMP_pressure;BME280_temperature;BME280_humidity;BME280_pressure;Samples;Min_cycle;Max_cycle;Signal;HPM_P1;HPM_P2
2023/12/31 00:02:06;;;;;;;8.00;5.73;;;;;;;;;;5009789;28;20219;-32
2023/12/31 00:04:33;;;;;;;8.20;5.40;;;;;;;;;;5004629;28;20223;-33
2023/12/31 00:07:02;;;;;;;10.07;6.13;;;;;;;;;;5003106;28;20207;-37
2023/12/31 00:09:29;;;;;;;7.27;5.63;;;;;;;;;;5010167;28;20207;-33
2023/12/31 00:11:56;;;;;;;8.20;6.23;;;;;;;;;;5006768;28;20216;-29
2023/12/31 00:14:23;;;;;;;7.20;5.30;;;;;;;;;;5005303;28;20221;-33
2023/12/31 00:16:51;;;;;;;8.00;5.87;;;;;;;;;;5009220;28;20207;-36
2023/12/31 00:19:18;;;;;;;9.13;5.13;;;;;;;;;;5009577;28;20294;-33
2023/12/31 00:21:45;;;;;;;6.27;4.90;;;;;;;;;;5003387;28;20280;-36
2023/12/31 00:24:13;;;;;;;8.57;5.00;;;;;;;;;;4996828;28;20233;-31
2023/12/31 00:26:41;;;;;;;8.37;5.20;;;;;;;;;;5002370;28;20207;-33
2023/12/31 00:29:08;;;;;;;7.50;4.63;;;;;;;;;;5008754;28;20225;-37
2023/12/31 00:31:35;;;;;;;8.10;5.27;;;;;;;;;;5009839;28;20261;-32
2023/12/31 00:34:02;;;;;;;7.20;5.00;;;;;;;;;;5006497;28;20254;-32
2023/12/31 00:36:31;;;;;;;6.23;5.20;;;;;;;;;;5006778;28;20270;-32
2023/12/31 00:38:58;;;;;;;10.00;4.93;;;;;;;;;;5011384;28;20698;-33
2023/12/31 00:41:27;;;;;;;8.37;5.27;;;;;;;;;;5009307;28;20299;-35
2023/12/31 00:43:54;;;;;;;8.33;5.10;;;;;;;;;;4998781;28;20293;-33
2023/12/31 00:46:21;;;;;;;6.37;5.10;;;;;;;;;;5009440;28;20217;-31
2023/12/31 00:48:48;;;;;;;8.57;5.10;;;;;;;;;;5008623;28;20223;-32
2023/12/31 00:51:16;;;;;;;9.83;6.00;;;;;;;;;;5002162;28;20204;-35
2023/12/31 00:53:43;;;;;;;8.43;5.47;;;;;;;;;;5001018;28;20205;-34
2023/12/31 00:56:10;;;;;;;5.50;4.33;;;;;;;;;;5003046;28;20203;-35
2023/12/31 00:58:39;;;;;;;7.40;4.93;;;;;;;;;;5009107;28;20207;-30
2023/12/31 01:01:06;;;;;;;7.93;5.00;;;;;;;;;;5008407;28;20217;-31
2023/12/31 01:03:34;;;;;;;7.23;4.90;;;;;;;;;;5008413;28;20238;-33
2023/12/31 01:06:05;;;;;;;8.20;5.40;;;;;;;;;;5005172;28;20800;-33
2023/12/31 01:08:32;;;;;;;10.83;5.37;;;;;;;;;;5007959;28;20217;-32
2023/12/31 01:11:00;;;;;;;7.97;4.83;;;;;;;;;;5008242;28;20211;-30
2023/12/31 01:13:27;;;;;;;5.07;4.43;;;;;;;;;;5008386;28;20208;-30
2023/12/31 01:15:55;;;;;;;5.97;4.40;;;;;;;;;;5006096;28;20233;-30
2023/12/31 01:18:22;;;;;;;6.37;4.30;;;;;;;;;;4997943;28;20281;-33
2023/12/31 01:20:50;;;;;;;6.03;4.70;;;;;;;;;;5002201;28;20204;-35
2023/12/31 01:23:17;;;;;;;6.67;4.50;;;;;;;;;;5005049;28;20217;-31
2023/12/31 01:25:44;;;;;;;6.13;4.23;;;;;;;;;;5002641;28;20235;-36
2023/12/31 01:28:11;;;;;;;9.07;5.03;;;;;;;;;;5003248;28;20294;-36
2023/12/31 01:30:38;;;;;;;6.27;5.00;;;;;;;;;;5008814;28;20217;-35
2023/12/31 01:33:07;;;;;;;6.03;4.23;;;;;;;;;;5003796;28;20293;-36
2023/12/31 01:35:34;;;;;;;9.27;5.43;;;;;;;;;;5006459;28;20234;-31
2023/12/31 01:38:01;;;;;;;6.83;4.87;;;;;;;;;;5006634;28;20237;-31
2023/12/31 01:40:29;;;;;;;7.03;4.53;;;;;;;;;;5008853;28;20203;-33
2023/12/31 01:42:56;;;;;;;7.50;5.00;;;;;;;;;;5004536;28;20299;-36
2023/12/31 01:45:23;;;;;;;7.97;5.57;;;;;;;;;;5003565;28;20241;-33
2023/12/31 01:47:51;;;;;;;10.07;5.63;;;;;;;;;;5008793;28;20207;-32
2023/12/31 01:50:20;;;;;;;6.77;4.83;;;;;;;;;;5000963;28;20207;-30
2023/12/31 01:52:48;;;;;;;6.33;4.57;;;;;;;;;;5009530;28;20221;-34
2023/12/31 01:55:15;;;;;;;6.90;4.93;;;;;;;;;;5002947;28;20314;-36
2023/12/31 01:57:43;;;;;;;7.13;4.90;;;;;;;;;;5001991;28;20200;-32
2023/12/31 02:00:11;;;;;;;7.53;5.40;;;;;;;;;;5006671;28;20206;-35
2023/12/31 02:02:38;;;;;;;6.77;5.23;;;;;;;;;;4998297;28;20207;-32
2023/12/31 02:05:06;;;;;;;6.87;5.00;;;;;;;;;;5007086;28;20235;-31
2023/12/31 02:07:34;;;;;;;7.17;4.87;;;;;;;;;;5008261;28;20685;-31
2023/12/31 02:10:02;;;;;;;7.33;4.67;;;;;;;;;;5007348;28;20238;-35
2023/12/31 02:12:29;;;;;;;9.53;5.00;;;;;;;;;;5009104;28;20222;-36
2023/12/31 02:14:56;;;;;;;7.37;5.00;;;;;;;;;;5009161;28;20230;-32
2023/12/31 02:17:23;;;;;;;9.70;5.10;;;;;;;;;;5009548;28;20209;-34
2023/12/31 02:19:50;;;;;;;8.13;5.00;;;;;;;;;;5008166;28;20215;-31
2023/12/31 02:22:17;;;;;;;6.43;4.53;;;;;;;;;;5011080;28;20213;-35
2023/12/31 02:24:47;;;;;;;7.60;5.33;;;;;;;;;;5013592;28;20313;-33
2023/12/31 02:27:16;;;;;;;8.77;4.60;;;;;;;;;;5009965;28;20667;-33
2023/12/31 02:29:43;;;;;;;8.63;4.90;;;;;;;;;;5015663;28;20230;-32
2023/12/31 02:32:10;;;;;;;7.23;5.17;;;;;;;;;;5015698;28;20207;-30
2023/12/31 02:34:44;;;;;;;8.33;4.80;;;;;;;;;;5011626;28;20277;-35
2023/12/31 02:37:11;;;;;;;8.70;4.73;;;;;;;;;;5012290;28;20215;-34
2023/12/31 02:39:38;;;;;;;6.43;4.20;;;;;;;;;;5012293;28;20267;-32
2023/12/31 02:42:06;;;;;;;7.00;4.60;;;;;;;;;;5012266;28;20287;-36
2023/12/31 02:44:34;;;;;;;5.93;4.70;;;;;;;;;;5010845;28;20234;-34
2023/12/31 02:47:01;;;;;;;6.70;4.87;;;;;;;;;;5015070;28;20203;-32
2023/12/31 02:49:28;;;;;;;8.30;4.67;;;;;;;;;;5014485;28;20293;-35
2023/12/31 02:51:55;;;;;;;6.80;4.87;;;;;;;;;;5004130;28;20278;-33
2023/12/31 02:54:23;;;;;;;5.70;4.63;;;;;;;;;;5006849;28;20222;-31
2023/12/31 02:56:50;;;;;;;8.53;5.13;;;;;;;;;;5004680;28;20214;-33
2023/12/31 02:59:17;;;;;;;6.33;4.60;;;;;;;;;;5010207;28;20241;-34
2023/12/31 03:01:45;;;;;;;6.73;4.70;;;;;;;;;;5014346;28;20207;-32
2023/12/31 03:04:12;;;;;;;6.83;4.90;;;;;;;;;;5010007;28;20231;-36
2023/12/31 03:06:40;;;;;;;5.77;4.23;;;;;;;;;;5014495;28;20242;-33
2023/12/31 03:09:07;;;;;;;7.03;5.20;;;;;;;;;;5014122;28;20203;-32
2023/12/31 03:11:34;;;;;;;4.90;4.33;;;;;;;;;;5015114;28;20214;-33
2023/12/31 03:14:02;;;;;;;6.03;4.47;;;;;;;;;;5006710;28;20251;-34
2023/12/31 03:16:29;;;;;;;7.93;4.20;;;;;;;;;;5013945;28;20231;-33
2023/12/31 03:18:57;;;;;;;8.40;4.50;;;;;;;;;;5014621;28;20211;-33
2023/12/31 03:21:24;;;;;;;7.53;4.60;;;;;;;;;;5006336;28;20227;-32
2023/12/31 03:23:52;;;;;;;7.57;5.03;;;;;;;;;;5011397;28;20243;-33
2023/12/31 03:26:19;;;;;;;6.73;4.80;;;;;;;;;;5008561;28;20261;-36
2023/12/31 03:28:46;;;;;;;5.80;4.40;;;;;;;;;;5013553;28;20213;-33
2023/12/31 03:31:13;;;;;;;6.00;4.40;;;;;;;;;;5013054;28;20207;-35
2023/12/31 03:33:40;;;;;;;5.63;4.10;;;;;;;;;;5012627;28;20370;-33
2023/12/31 03:38:37;;;;;;;9.87;4.97;;;;;;;;;;5030020;28;20218;-32
2023/12/31 03:41:04;;;;;;;5.77;4.23;;;;;;;;;;5029422;28;20247;-33
2023/12/31 03:43:31;;;;;;;6.87;4.23;;;;;;;;;;5028543;28;20206;-34
2023/12/31 03:45:59;;;;;;;6.70;4.80;;;;;;;;;;5029588;28;20266;-34
2023/12/31 03:48:26;;;;;;;6.47;4.47;;;;;;;;;;5030651;28;20234;-32
2023/12/31 03:50:53;;;;;;;5.43;4.10;;;;;;;;;;5028349;28;20249;-33
2023/12/31 03:53:21;;;;;;;5.67;3.77;;;;;;;;;;5024471;28;20221;-31
2023/12/31 03:55:49;;;;;;;6.77;4.83;;;;;;;;;;5027665;28;20729;-33
2023/12/31 03:58:16;;;;;;;6.47;4.70;;;;;;;;;;5024025;28;20206;-34
2023/12/31 04:00:44;;;;;;;6.90;4.77;;;;;;;;;;5017246;28;20302;-31
2023/12/31 04:03:11;;;;;;;8.53;4.80;;;;;;;;;;5030115;28;20241;-30
2023/12/31 04:05:39;;;;;;;7.10;4.33;;;;;;;;;;5019648;28;20251;-32
2023/12/31 04:08:06;;;;;;;4.53;3.73;;;;;;;;;;5020575;28;20214;-34
2023/12/31 04:10:34;;;;;;;6.00;4.20;;;;;;;;;;5026293;28;20271;-31
2023/12/31 04:13:02;;;;;;;5.67;4.23;;;;;;;;;;5029284;28;20301;-32
2023/12/31 04:15:30;;;;;;;5.83;3.90;;;;;;;;;;5015879;28;20225;-31
2023/12/31 04:17:57;;;;;;;5.63;4.00;;;;;;;;;;5029222;28;20230;-34
2023/12/31 04:20:25;;;;;;;8.63;4.53;;;;;;;;;;5018886;28;20675;-32
2023/12/31 04:22:52;;;;;;;6.03;4.10;;;;;;;;;;5024708;28;20206;-30
2023/12/31 04:25:19;;;;;;;3.97;3.47;;;;;;;;;;5024634;28;20232;-35
2023/12/31 04:27:47;;;;;;;6.57;4.13;;;;;;;;;;5018272;28;20301;-31
2023/12/31 04:30:15;;;;;;;7.30;4.30;;;;;;;;;;5027669;28;20207;-33
2023/12/31 04:32:42;;;;;;;4.43;3.67;;;;;;;;;;5029334;28;20227;-33
2023/12/31 04:35:09;;;;;;;5.60;4.43;;;;;;;;;;5028824;28;20242;-38
2023/12/31 04:37:36;;;;;;;6.50;4.57;;;;;;;;;;5014715;28;20206;-36
2023/12/31 04:40:03;;;;;;;6.10;3.87;;;;;;;;;;5025470;28;20215;-34
2023/12/31 04:42:31;;;;;;;4.27;3.70;;;;;;;;;;5021383;28;20214;-36
2023/12/31 04:44:59;;;;;;;4.97;3.53;;;;;;;;;;5025005;28;20325;-34
2023/12/31 04:47:28;;;;;;;6.50;3.90;;;;;;;;;;5019452;28;20202;-39
2023/12/31 04:49:55;;;;;;;4.10;3.27;;;;;;;;;;5030164;28;20664;-36
2023/12/31 04:52:22;;;;;;;4.10;3.03;;;;;;;;;;5028917;28;20217;-33
2023/12/31 04:54:51;;;;;;;4.10;3.37;;;;;;;;;;5025223;28;20247;-34
2023/12/31 04:57:18;;;;;;;5.43;3.60;;;;;;;;;;5021643;28;20450;-35
2023/12/31 04:59:45;;;;;;;4.33;3.20;;;;;;;;;;5029498;28;20257;-34
2023/12/31 05:02:13;;;;;;;5.07;3.27;;;;;;;;;;5027299;28;20303;-36
2023/12/31 05:04:42;;;;;;;4.93;4.03;;;;;;;;;;5021897;28;20230;-33
2023/12/31 05:07:10;;;;;;;6.83;3.73;;;;;;;;;;5022401;28;20202;-38
2023/12/31 05:09:40;;;;;;;3.50;3.10;;;;;;;;;;5029441;28;20225;-32
2023/12/31 05:12:08;;;;;;;6.17;4.03;;;;;;;;;;5022426;28;20210;-32
2023/12/31 05:14:35;;;;;;;7.63;3.90;;;;;;;;;;5025367;28;20226;-33
2023/12/31 05:17:02;;;;;;;4.57;3.50;;;;;;;;;;5029061;28;20220;-30
2023/12/31 05:19:29;;;;;;;5.33;3.60;;;;;;;;;;5023415;28;20211;-32
2023/12/31 05:21:58;;;;;;;5.37;3.27;;;;;;;;;;5015800;28;20215;-35
2023/12/31 05:24:25;;;;;;;4.13;3.70;;;;;;;;;;5027650;28;20254;-34
2023/12/31 05:26:52;;;;;;;7.27;3.77;;;;;;;;;;5019813;28;20258;-34
2023/12/31 05:29:19;;;;;;;4.83;3.40;;;;;;;;;;5022562;28;20211;-32
2023/12/31 05:31:47;;;;;;;4.67;3.43;;;;;;;;;;5028484;28;20257;-30
2023/12/31 05:34:14;;;;;;;5.23;3.57;;;;;;;;;;5023460;28;20314;-30
2023/12/31 05:36:41;;;;;;;4.37;3.50;;;;;;;;;;5022519;28;20294;-32
2023/12/31 05:39:11;;;;;;;3.77;3.10;;;;;;;;;;5028345;28;20214;-36
2023/12/31 05:41:38;;;;;;;5.93;3.73;;;;;;;;;;5027630;28;20257;-32
2023/12/31 05:44:05;;;;;;;5.53;3.13;;;;;;;;;;5016847;28;20229;-33
2023/12/31 05:46:33;;;;;;;5.57;3.33;;;;;;;;;;5023446;28;20223;-35
2023/12/31 05:49:00;;;;;;;5.53;3.10;;;;;;;;;;5028997;28;20301;-30
2023/12/31 05:51:27;;;;;;;4.10;3.20;;;;;;;;;;5021740;28;20727;-36
2023/12/31 05:53:54;;;;;;;4.90;3.37;;;;;;;;;;5024837;28;20227;-32
2023/12/31 05:56:23;;;;;;;4.57;3.37;;;;;;;;;;5021659;28;20457;-34
2023/12/31 05:58:50;;;;;;;5.37;3.17;;;;;;;;;;5031870;28;20284;-32
2023/12/31 06:01:17;;;;;;;5.47;2.90;;;;;;;;;;5031712;28;20225;-30
2023/12/31 06:03:44;;;;;;;4.63;3.40;;;;;;;;;;5031756;28;20657;-31
2023/12/31 06:06:11;;;;;;;4.77;2.97;;;;;;;;;;5019035;28;20329;-32
2023/12/31 06:08:38;;;;;;;3.67;3.00;;;;;;;;;;5032200;28;20214;-35
2023/12/31 06:11:06;;;;;;;4.77;3.30;;;;;;;;;;5032586;28;20288;-33
2023/12/31 06:13:34;;;;;;;3.90;3.33;;;;;;;;;;5024899;28;20691;-34
2023/12/31 06:16:02;;;;;;;3.97;3.00;;;;;;;;;;5027732;28;20238;-37
2023/12/31 06:18:29;;;;;;;4.03;3.40;;;;;;;;;;5031787;28;20237;-37
2023/12/31 06:20:56;;;;;;;4.33;3.13;;;;;;;;;;5027648;28;20211;-32
2023/12/31 06:23:23;;;;;;;3.93;3.37;;;;;;;;;;5028963;28;20298;-32
2023/12/31 06:25:50;;;;;;;3.70;3.17;;;;;;;;;;5028968;28;20321;-36
2023/12/31 06:28:17;;;;;;;4.10;2.90;;;;;;;;;;5025908;28;20207;-36
2023/12/31 06:30:46;;;;;;;4.27;3.33;;;;;;;;;;5032355;28;20195;-32
2023/12/31 06:33:13;;;;;;;2.90;2.60;;;;;;;;;;5031258;28;20221;-36
2023/12/31 06:35:40;;;;;;;3.90;3.23;;;;;;;;;;5022750;28;20305;-35
2023/12/31 06:38:07;;;;;;;4.47;3.07;;;;;;;;;;5028138;28;20228;-36
2023/12/31 06:40:35;;;;;;;4.97;3.20;;;;;;;;;;5031773;28;20302;-37
2023/12/31 06:43:02;;;;;;;4.80;3.27;;;;;;;;;;5028179;28;20210;-36
2023/12/31 06:45:29;;;;;;;4.00;2.83;;;;;;;;;;5030498;28;20270;-35
2023/12/31 06:47:57;;;;;;;5.57;3.83;;;;;;;;;;5031549;28;20292;-37
2023/12/31 06:50:25;;;;;;;5.40;3.10;;;;;;;;;;5027160;28;20204;-32
2023/12/31 06:52:53;;;;;;;5.27;4.10;;;;;;;;;;5030566;28;20210;-32
2023/12/31 06:55:20;;;;;;;5.10;3.50;;;;;;;;;;5030757;28;20314;-34
2023/12/31 06:57:49;;;;;;;5.93;3.63;;;;;;;;;;5019218;28;20206;-36
2023/12/31 07:00:16;;;;;;;5.53;3.80;;;;;;;;;;5028270;28;20234;-33
2023/12/31 07:02:44;;;;;;;5.27;3.33;;;;;;;;;;5031259;28;20198;-34
2023/12/31 07:05:12;;;;;;;5.00;4.33;;;;;;;;;;5022289;28;20242;-33
2023/12/31 07:07:40;;;;;;;4.00;3.07;;;;;;;;;;5016707;28;20226;-35
2023/12/31 07:10:08;;;;;;;5.07;3.77;;;;;;;;;;5033071;28;20215;-35
2023/12/31 07:12:36;;;;;;;4.13;3.10;;;;;;;;;;5033287;28;20274;-32
2023/12/31 07:15:04;;;;;;;4.33;3.03;;;;;;;;;;5024431;28;20318;-30
2023/12/31 07:17:54;;;;;;;4.80;3.13;;;;;;;;;;5023711;28;20211;-33
2023/12/31 07:20:24;;;;;;;3.90;3.07;;;;;;;;;;5022730;28;20250;-30
2023/12/31 07:22:53;;;;;;;3.50;2.93;;;;;;;;;;5028068;28;20211;-36
2023/12/31 07:25:21;;;;;;;2.77;2.27;;;;;;;;;;5022001;28;20262;-30
2023/12/31 07:27:54;;;;;;;4.80;2.97;;;;;;;;;;5023623;28;20306;-33
2023/12/31 07:30:29;;;;;;;5.07;2.70;;;;;;;;;;5023241;28;20249;-37
2023/12/31 07:32:57;;;;;;;5.73;3.30;;;;;;;;;;5028425;28;20210;-35
2023/12/31 07:35:25;;;;;;;4.37;3.17;;;;;;;;;;5030637;28;20230;-36
2023/12/31 07:37:52;;;;;;;3.93;2.77;;;;;;;;;;5032860;28;20257;-30
2023/12/31 07:40:20;;;;;;;4.17;3.47;;;;;;;;;;5024232;28;20217;-37
2023/12/31 07:42:47;;;;;;;4.73;3.20;;;;;;;;;;5024446;28;20207;-32
2023/12/31 07:45:14;;;;;;;5.33;3.00;;;;;;;;;;5031369;28;20230;-35
2023/12/31 07:47:43;;;;;;;3.43;2.90;;;;;;;;;;5028285;28;20281;-36
2023/12/31 07:50:10;;;;;;;3.63;2.97;;;;;;;;;;5027452;28;20266;-33
2023/12/31 07:52:40;;;;;;;4.53;2.93;;;;;;;;;;5029864;28;20202;-33
2023/12/31 07:55:08;;;;;;;3.67;2.80;;;;;;;;;;5024927;28;20227;-34
2023/12/31 07:57:35;;;;;;;4.40;3.23;;;;;;;;;;5022573;28;20202;-32
2023/12/31 08:00:05;;;;;;;6.83;3.87;;;;;;;;;;5027590;28;20229;-32
2023/12/31 08:02:32;;;;;;;4.50;2.90;;;;;;;;;;5032415;28;20211;-37
2023/12/31 08:04:59;;;;;;;5.07;3.13;;;;;;;;;;5030892;28;20266;-34
2023/12/31 08:07:27;;;;;;;4.67;3.23;;;;;;;;;;5024071;28;20265;-31
2023/12/31 08:09:55;;;;;;;7.13;3.37;;;;;;;;;;5023064;28;20207;-32
2023/12/31 08:12:23;;;;;;;7.43;3.30;;;;;;;;;;5022156;28;20249;-33
2023/12/31 08:14:51;;;;;;;3.33;3.03;;;;;;;;;;5032388;28;20249;-39
2023/12/31 08:17:18;;;;;;;3.17;2.87;;;;;;;;;;5032367;28;20242;-31
2023/12/31 08:19:45;;;;;;;3.53;2.60;;;;;;;;;;5020538;28;20209;-36
2023/12/31 08:22:13;;;;;;;4.17;3.07;;;;;;;;;;5028059;28;20297;-35
2023/12/31 08:24:40;;;;;;;4.70;3.33;;;;;;;;;;5021693;28;20226;-37
2023/12/31 08:27:16;;;;;;;5.87;3.10;;;;;;;;;;5021814;28;20233;-36
2023/12/31 08:29:57;;;;;;;4.97;3.57;;;;;;;;;;5030159;28;20259;-32
2023/12/31 08:32:27;;;;;;;4.67;3.30;;;;;;;;;;5030441;28;20203;-35
2023/12/31 08:35:01;;;;;;;5.03;3.53;;;;;;;;;;5027079;28;20237;-33
2023/12/31 08:37:28;;;;;;;4.77;3.90;;;;;;;;;;5029419;28;20206;-35
2023/12/31 08:40:03;;;;;;;4.37;3.87;;;;;;;;;;5020809;28;20683;-33
2023/12/31 08:42:31;;;;;;;5.87;3.30;;;;;;;;;;5029681;28;20276;-35
2023/12/31 08:44:58;;;;;;;5.60;3.97;;;;;;;;;;5032806;28;20289;-36
2023/12/31 08:47:26;;;;;;;8.20;3.70;;;;;;;;;;5023229;28;20266;-34
2023/12/31 08:49:53;;;;;;;5.27;3.47;;;;;;;;;;5030688;28;20293;-35
2023/12/31 08:52:20;;;;;;;7.00;4.40;;;;;;;;;;5030820;28;20211;-36
2023/12/31 08:54:48;;;;;;;3.93;2.77;;;;;;;;;;5025790;28;20234;-33
2023/12/31 08:57:15;;;;;;;6.43;3.43;;;;;;;;;;5017107;28;20206;-34
2023/12/31 08:59:43;;;;;;;4.67;4.10;;;;;;;;;;5028780;28;20217;-34
2023/12/31 09:02:14;;;;;;;6.00;3.60;;;;;;;;;;5031648;28;20234;-32
2023/12/31 09:04:42;;;;;;;4.73;4.00;;;;;;;;;;5025602;28;20234;-32
2023/12/31 09:07:09;;;;;;;7.00;3.63;;;;;;;;;;5024546;28;20226;-34
2023/12/31 09:09:36;;;;;;;4.20;3.80;;;;;;;;;;5019955;28;20707;-34
2023/12/31 09:12:04;;;;;;;4.97;3.40;;;;;;;;;;5023124;28;20195;-34
2023/12/31 09:14:31;;;;;;;5.83;4.00;;;;;;;;;;5028240;28;20313;-33
2023/12/31 09:17:00;;;;;;;3.93;3.43;;;;;;;;;;5027344;28;20226;-35
2023/12/31 09:19:27;;;;;;;4.17;3.00;;;;;;;;;;5022868;28;20207;-31
2023/12/31 09:21:54;;;;;;;4.97;3.67;;;;;;;;;;5026299;28;20209;-33
2023/12/31 09:24:21;;;;;;;4.03;3.57;;;;;;;;;;5030647;28;20230;-34
2023/12/31 09:26:49;;;;;;;5.67;3.93;;;;;;;;;;5030549;28;20218;-33
2023/12/31 09:29:17;;;;;;;5.03;4.53;;;;;;;;;;5027556;28;20225;-35
2023/12/31 09:31:44;;;;;;;6.27;3.93;;;;;;;;;;5029937;28;20214;-34
2023/12/31 09:34:16;;;;;;;7.03;4.47;;;;;;;;;;5030697;28;20226;-36
2023/12/31 09:36:45;;;;;;;5.27;3.80;;;;;;;;;;5022660;28;20222;-30
2023/12/31 09:39:13;;;;;;;9.83;3.93;;;;;;;;;;5024180;28;20302;-33
2023/12/31 09:41:41;;;;;;;6.57;4.00;;;;;;;;;;5030224;28;20210;-34
2023/12/31 09:44:09;;;;;;;5.03;3.80;;;;;;;;;;5029967;28;20290;-36
2023/12/31 09:46:39;;;;;;;3.80;3.27;;;;;;;;;;5020905;28;20230;-36
2023/12/31 09:49:07;;;;;;;5.20;3.70;;;;;;;;;;5031230;28;20230;-32
2023/12/31 09:51:35;;;;;;;5.07;3.37;;;;;;;;;;5030515;28;20207;-32
2023/12/31 09:54:05;;;;;;;4.20;3.57;;;;;;;;;;5022143;28;20326;-32
2023/12/31 09:56:32;;;;;;;6.83;3.67;;;;;;;;;;5029946;28;20211;-37
2023/12/31 09:59:00;;;;;;;4.23;3.60;;;;;;;;;;5030377;28;20292;-32
2023/12/31 10:01:29;;;;;;;6.17;4.00;;;;;;;;;;5025630;28;20286;-35
2023/12/31 10:03:56;;;;;;;4.47;3.47;;;;;;;;;;5020648;28;20546;-33
2023/12/31 10:06:24;;;;;;;4.13;3.30;;;;;;;;;;5029823;28;20213;-30
2023/12/31 10:08:53;;;;;;;5.80;4.13;;;;;;;;;;5016827;28;20199;-41
2023/12/31 10:11:20;;;;;;;5.53;3.93;;;;;;;;;;5028451;28;20293;-33
2023/12/31 10:13:48;;;;;;;4.50;3.57;;;;;;;;;;5028454;28;20269;-34
2023/12/31 10:16:15;;;;;;;4.80;3.80;;;;;;;;;;5028389;28;20207;-32
2023/12/31 10:18:43;;;;;;;4.30;3.57;;;;;;;;;;5019775;28;20265;-34
2023/12/31 10:21:11;;;;;;;4.37;3.83;;;;;;;;;;5028379;28;20203;-34
2023/12/31 10:23:38;;;;;;;5.13;3.60;;;;;;;;;;5029098;28;20199;-36
2023/12/31 10:26:07;;;;;;;5.17;3.70;;;;;;;;;;5029404;28;20744;-30
2023/12/31 10:28:34;;;;;;;4.77;3.80;;;;;;;;;;5021708;28;20230;-36
2023/12/31 10:31:01;;;;;;;4.50;3.57;;;;;;;;;;5029897;28;20227;-32
2023/12/31 10:33:29;;;;;;;3.73;3.33;;;;;;;;;;5026753;28;20237;-33
2023/12/31 10:36:09;;;;;;;4.40;3.60;;;;;;;;;;5027492;28;20226;-31
2023/12/31 10:38:45;;;;;;;3.43;3.13;;;;;;;;;;5020915;28;20214;-36
2023/12/31 10:41:17;;;;;;;5.83;3.87;;;;;;;;;;5030399;28;20242;-35
2023/12/31 10:43:46;;;;;;;5.03;3.87;;;;;;;;;;5029509;28;20249;-32
2023/12/31 10:46:15;;;;;;;5.23;4.33;;;;;;;;;;5029305;28;20293;-32
2023/12/31 10:48:45;;;;;;;5.63;4.17;;;;;;;;;;5033136;28;20215;-36
2023/12/31 10:51:14;;;;;;;5.37;4.20;;;;;;;;;;5033808;28;20210;-34
2023/12/31 10:53:42;;;;;;;6.23;4.30;;;;;;;;;;5033027;28;20207;-31
2023/12/31 10:56:11;;;;;;;3.90;3.40;;;;;;;;;;5024775;28;20241;-32
2023/12/31 10:58:40;;;;;;;5.77;4.83;;;;;;;;;;5025727;28;20202;-32
2023/12/31 11:01:07;;;;;;;4.73;4.23;;;;;;;;;;5033466;28;20207;-36
2023/12/31 11:03:36;;;;;;;5.93;4.43;;;;;;;;;;5028309;28;20273;-35
2023/12/31 11:06:04;;;;;;;4.63;4.23;;;;;;;;;;5032916;28;20231;-35
2023/12/31 11:08:31;;;;;;;6.77;4.23;;;;;;;;;;5024744;28;20231;-35
2023/12/31 11:10:59;;;;;;;4.83;3.87;;;;;;;;;;5025604;28;20206;-35
2023/12/31 11:13:27;;;;;;;6.80;3.07;;;;;;;;;;5032676;28;20262;-31
2023/12/31 11:15:57;;;;;;;6.27;4.20;;;;;;;;;;5030641;28;20387;-32
2023/12/31 11:18:34;;;;;;;4.97;3.77;;;;;;;;;;5032433;28;20199;-33
2023/12/31 11:21:15;;;;;;;3.10;2.73;;;;;;;;;;5025068;28;20293;-35
2023/12/31 11:23:47;;;;;;;4.03;2.80;;;;;;;;;;5030331;28;20271;-32
2023/12/31 11:26:15;;;;;;;4.47;3.47;;;;;;;;;;5023361;28;20218;-34
2023/12/31 11:28:48;;;;;;;3.37;2.87;;;;;;;;;;5029457;28;20246;-35
2023/12/31 11:31:16;;;;;;;3.07;2.40;;;;;;;;;;5032432;28;20273;-31
2023/12/31 11:33:45;;;;;;;3.77;2.40;;;;;;;;;;5019643;28;20298;-35
2023/12/31 11:36:13;;;;;;;2.17;1.97;;;;;;;;;;5030158;28;20205;-37
2023/12/31 11:38:53;;;;;;;3.70;3.00;;;;;;;;;;5019688;28;20231;-31
2023/12/31 11:41:20;;;;;;;1.80;1.63;;;;;;;;;;5032034;28;20206;-35
2023/12/31 11:43:48;;;;;;;2.50;1.80;;;;;;;;;;5032078;28;20210;-34
2023/12/31 11:46:30;;;;;;;2.03;1.90;;;;;;;;;;5025803;28;20211;-34
2023/12/31 11:48:59;;;;;;;2.53;1.90;;;;;;;;;;5031556;28;20246;-37
2023/12/31 11:51:29;;;;;;;1.93;1.80;;;;;;;;;;5032719;28;20202;-36
2023/12/31 11:53:59;;;;;;;1.80;1.70;;;;;;;;;;5030423;28;20207;-31
2023/12/31 11:56:29;;;;;;;2.10;1.90;;;;;;;;;;5027062;28;20210;-33
2023/12/31 11:58:56;;;;;;;1.70;1.57;;;;;;;;;;5031923;28;20238;-36
2023/12/31 12:01:24;;;;;;;2.73;1.70;;;;;;;;;;5032602;28;20253;-34
2023/12/31 12:03:51;;;;;;;1.60;1.50;;;;;;;;;;5021808;28;20213;-34
2023/12/31 12:06:20;;;;;;;1.40;1.30;;;;;;;;;;5032205;28;20207;-32
2023/12/31 12:08:47;;;;;;;1.73;0.93;;;;;;;;;;5023176;28;20310;-35
2023/12/31 12:11:14;;;;;;;4.27;2.10;;;;;;;;;;5032517;28;20206;-33
2023/12/31 12:13:42;;;;;;;1.83;1.63;;;;;;;;;;5032484;28;20302;-33
2023/12/31 12:16:09;;;;;;;1.67;1.57;;;;;;;;;;5032782;28;20223;-33
2023/12/31 12:18:36;;;;;;;2.37;2.17;;;;;;;;;;5025168;28;20199;-34
2023/12/31 12:21:03;;;;;;;1.93;1.53;;;;;;;;;;5025145;28;20245;-33
2023/12/31 12:23:32;;;;;;;1.93;1.80;;;;;;;;;;5025427;28;20410;-33
2023/12/31 12:25:59;;;;;;;2.43;2.00;;;;;;;;;;5022868;28;20230;-30
2023/12/31 12:28:26;;;;;;;1.20;1.10;;;;;;;;;;5025980;28;20222;-37
2023/12/31 12:30:54;;;;;;;1.03;1.00;;;;;;;;;;5031765;28;20210;-35
2023/12/31 12:33:21;;;;;;;1.53;0.97;;;;;;;;;;5026267;28;20202;-33
2023/12/31 12:35:49;;;;;;;1.10;0.97;;;;;;;;;;5027796;28;20238;-28
2023/12/31 12:38:16;;;;;;;1.27;1.03;;;;;;;;;;5024004;28;20296;-32
2023/12/31 12:40:45;;;;;;;1.17;1.00;;;;;;;;;;5021988;28;20234;-29
2023/12/31 12:43:14;;;;;;;0.80;0.80;;;;;;;;;;5032511;28;20205;-34
2023/12/31 12:45:41;;;;;;;1.80;1.10;;;;;;;;;;5032526;28;20245;-32
2023/12/31 12:48:09;;;;;;;0.80;0.80;;;;;;;;;;5028604;28;20302;-31
2023/12/31 12:50:36;;;;;;;0.80;0.80;;;;;;;;;;5030494;28;20203;-29
2023/12/31 12:53:03;;;;;;;0.87;0.87;;;;;;;;;;5031149;28;20261;-33
2023/12/31 12:55:30;;;;;;;1.60;0.80;;;;;;;;;;5030248;28;20268;-35
2023/12/31 12:57:59;;;;;;;1.00;0.90;;;;;;;;;;5024934;28;20210;-29
2023/12/31 13:00:26;;;;;;;1.23;0.87;;;;;;;;;;5026650;28;20202;-34
2023/12/31 13:02:53;;;;;;;1.80;0.70;;;;;;;;;;5031673;28;20238;-32
2023/12/31 13:05:20;;;;;;;1.00;1.00;;;;;;;;;;5031968;28;20285;-29
2023/12/31 13:07:48;;;;;;;1.40;0.93;;;;;;;;;;5024812;28;20317;-32
2023/12/31 13:10:15;;;;;;;10.60;4.87;;;;;;;;;;5018219;28;20214;-33
2023/12/31 13:12:42;;;;;;;1.67;1.10;;;;;;;;;;5031385;28;20210;-32
2023/12/31 13:15:11;;;;;;;0.80;0.80;;;;;;;;;;5029961;28;20697;-33
2023/12/31 13:17:53;;;;;;;0.90;0.90;;;;;;;;;;5023154;28;20199;-33
2023/12/31 13:20:21;;;;;;;1.13;1.07;;;;;;;;;;5025632;28;20289;-34
2023/12/31 13:22:48;;;;;;;0.87;0.80;;;;;;;;;;5030403;28;20210;-33
2023/12/31 13:25:15;;;;;;;1.13;0.83;;;;;;;;;;5031631;28;20280;-31
2023/12/31 13:27:42;;;;;;;1.00;1.00;;;;;;;;;;5027899;28;20711;-33
2023/12/31 13:30:12;;;;;;;1.17;1.10;;;;;;;;;;5023588;28;20202;-34
2023/12/31 13:32:41;;;;;;;1.47;1.00;;;;;;;;;;5027779;28;20202;-34
2023/12/31 13:35:08;;;;;;;1.57;1.27;;;;;;;;;;5031064;28;20256;-30
2023/12/31 13:37:36;;;;;;;2.17;1.50;;;;;;;;;;5020630;28;20246;-33
2023/12/31 13:40:03;;;;;;;2.53;1.60;;;;;;;;;;5022617;28;20260;-32
2023/12/31 13:42:31;;;;;;;1.97;1.87;;;;;;;;;;5030839;28;20228;-33
2023/12/31 13:44:58;;;;;;;3.03;2.57;;;;;;;;;;5024128;28;20233;-30
2023/12/31 13:47:29;;;;;;;2.33;2.00;;;;;;;;;;5028015;28;20202;-32
2023/12/31 13:49:57;;;;;;;4.63;2.20;;;;;;;;;;5030335;28;20209;-37
2023/12/31 13:52:26;;;;;;;2.13;1.90;;;;;;;;;;5030655;28;20202;-34
2023/12/31 13:54:53;;;;;;;2.37;1.67;;;;;;;;;;5020763;28;20239;-32
2023/12/31 13:57:20;;;;;;;1.53;1.43;;;;;;;;;;5029772;28;20297;-33
2023/12/31 13:59:47;;;;;;;2.87;2.00;;;;;;;;;;5018261;28;20207;-31
2023/12/31 14:02:25;;;;;;;1.90;1.70;;;;;;;;;;5022405;28;20213;-31
2023/12/31 14:04:55;;;;;;;3.20;1.90;;;;;;;;;;5029776;28;20317;-37
2023/12/31 14:07:23;;;;;;;1.67;1.57;;;;;;;;;;5030792;28;20238;-29
2023/12/31 14:09:50;;;;;;;2.27;1.93;;;;;;;;;;5026566;28;20234;-34
2023/12/31 14:12:23;;;;;;;3.97;1.90;;;;;;;;;;5028842;28;20222;-32
2023/12/31 14:14:51;;;;;;;1.43;1.33;;;;;;;;;;5026637;28;20230;-33
2023/12/31 14:17:18;;;;;;;2.77;1.63;;;;;;;;;;5028453;28;20261;-31
2023/12/31 14:19:46;;;;;;;4.03;1.77;;;;;;;;;;5029010;28;20236;-32
2023/12/31 14:22:15;;;;;;;2.10;1.73;;;;;;;;;;5029794;28;20293;-33
2023/12/31 14:24:43;;;;;;;1.93;1.70;;;;;;;;;;5033331;28;20222;-33
2023/12/31 14:27:10;;;;;;;3.27;1.53;;;;;;;;;;5026961;28;20210;-33
2023/12/31 14:29:37;;;;;;;1.00;1.00;;;;;;;;;;5023029;28;20226;-32
2023/12/31 14:32:05;;;;;;;1.33;0.93;;;;;;;;;;5032280;28;20214;-36
2023/12/31 14:34:32;;;;;;;1.00;1.00;;;;;;;;;;5032460;28;20324;-29
2023/12/31 14:37:00;;;;;;;1.57;0.93;;;;;;;;;;5033522;28;20297;-35
2023/12/31 14:39:28;;;;;;;1.53;0.80;;;;;;;;;;5029401;28;20206;-30
2023/12/31 14:41:56;;;;;;;1.50;0.90;;;;;;;;;;5033153;28;20672;-31
2023/12/31 14:44:25;;;;;;;0.87;0.80;;;;;;;;;;5034291;28;20226;-32
2023/12/31 14:46:52;;;;;;;1.07;0.97;;;;;;;;;;5033840;28;20230;-30
2023/12/31 14:49:20;;;;;;;0.90;0.90;;;;;;;;;;5024165;28;20218;-29
2023/12/31 14:51:47;;;;;;;0.67;0.67;;;;;;;;;;5033264;28;20199;-31